ADDS METAR Data INFO
IDs: Format: Raw Decoded Include TAF

Data at: 0551 UTC 11 Dec 2017

KJYR 110535Z AUTO 26009KT 10SM CLR 01/M09 A3006 RMK AO2
KJYR 110515Z AUTO 25007KT 10SM CLR 00/M09 A3006 RMK AO2
KJYR 110455Z AUTO 27009KT 10SM CLR 02/M09 A3006 RMK AO2
KJYR 110435Z AUTO 28007KT 10SM CLR 01/M09 A3007 RMK AO2
KJYR 110415Z AUTO 28009KT 10SM CLR 02/M09 A3008 RMK AO2
KJYR 110355Z AUTO 28009KT 10SM CLR 03/M09 A3009 RMK AO2
KJYR 110335Z AUTO 27008KT 10SM CLR 02/M09 A3009 RMK AO2
KJYR 110315Z AUTO 28009KT 10SM CLR 02/M10 A3010 RMK AO2
KJYR 110255Z AUTO 26007KT 10SM CLR 02/M10 A3011 RMK AO2
KJYR 110235Z AUTO 26007KT 10SM CLR 00/M10 A3011 RMK AO2
KJYR 110210Z AUTO 27005KT 10SM CLR 02/M10 A3011 RMK AO2
KJYR 110155Z AUTO 27006KT 10SM CLR 04/M10 A3011 RMK AO2
KJYR 110135Z AUTO 27007KT 9SM CLR 03/M10 A3012 RMK AO2
KJYR 110115Z AUTO 27007KT 10SM CLR 04/M10 A3012 RMK AO2
KJYR 110055Z AUTO 27007KT 10SM CLR 05/M10 A3012 RMK AO2
KJYR 110035Z AUTO 26007KT 10SM CLR 03/M10 A3013 RMK AO2
KJYR 110015Z AUTO 31007KT 10SM CLR 09/M10 A3012 RMK AO2
KJYR 102355Z AUTO 31006KT 10SM CLR 07/M11 A3012 RMK AO2
KJYR 102335Z AUTO 31005KT 10SM CLR 09/M10 A3012 RMK AO2
KJYR 102315Z AUTO 27005KT 10SM CLR 10/M10 A3012 RMK AO2
KJYR 102255Z AUTO 28004KT 10SM CLR 12/M09 A3012 RMK AO2
KJYR 102235Z AUTO 28005KT 10SM CLR 13/M09 A3012 RMK AO2
KJYR 102215Z AUTO 30008KT 10SM CLR 15/M09 A3012 RMK AO2
KJYR 102155Z AUTO 29008KT 10SM CLR 15/M09 A3012 RMK AO2
KJYR 102135Z AUTO 29011KT 10SM CLR 16/M09 A3012 RMK AO2
KJYR 102115Z AUTO 30015G20KT 10SM CLR 16/M09 A3012 RMK AO2
KJYR 102055Z AUTO 30013KT 10SM CLR 15/M09 A3012 RMK AO2
KJYR 102035Z AUTO 30013KT 10SM CLR 15/M09 A3012 RMK AO2
KJYR 102015Z AUTO 30014G21KT 10SM CLR 15/M09 A3012 RMK AO2
KJYR 101955Z AUTO 32015G21KT 10SM CLR 15/M08 A3013 RMK AO2
KJYR 101935Z AUTO 31017KT 10SM CLR 15/M08 A3013 RMK AO2
KJYR 101915Z AUTO 33017G24KT 10SM CLR 14/M08 A3013 RMK AO2
KJYR 101855Z AUTO 33015G21KT 10SM CLR 14/M08 A3014 RMK AO2
KJYR 101835Z AUTO 33019G25KT 10SM CLR 14/M08 A3014 RMK AO2
KJYR 101815Z AUTO 33015G22KT 10SM CLR 13/M08 A3015 RMK AO2
KJYR 101755Z AUTO 33016G23KT 10SM CLR 13/M08 A3015 RMK AO2
KJYR 101735Z AUTO 33014G21KT 10SM CLR 13/M08 A3015 RMK AO2
KJYR 101715Z AUTO 33015G24KT 10SM CLR 12/M08 A3015 RMK AO2
KJYR 101655Z AUTO 33018G23KT 10SM CLR 12/M08 A3016 RMK AO2
KJYR 101635Z AUTO 32014KT 10SM CLR 10/M07 A3016 RMK AO2
KJYR 101615Z AUTO 32014KT 10SM CLR 09/M07 A3016 RMK AO2
KJYR 101555Z AUTO 33015KT 10SM CLR 08/M07 A3015 RMK AO2
KJYR 101535Z AUTO 33013G21KT 10SM CLR 08/M07 A3015 RMK AO2
KJYR 101515Z AUTO 31013KT 10SM CLR 06/M07 A3014 RMK AO2
KJYR 101455Z AUTO 30011KT 10SM CLR 05/M07 A3014 RMK AO2
KJYR 101430Z AUTO 29009KT 10SM CLR 03/M07 A3014 RMK AO2
KJYR 101415Z AUTO 30010KT 10SM CLR 02/M07 A3014 RMK AO2
KJYR 101355Z AUTO 29011KT 10SM CLR 02/M07 A3013 RMK AO2
KJYR 101335Z AUTO 30010KT 10SM CLR 02/M07 A3012 RMK AO2
KJYR 101315Z AUTO 29011KT 10SM CLR 01/M07 A3011 RMK AO2
KJYR 101255Z AUTO 28010KT 10SM CLR 00/M07 A3011 RMK AO2
KJYR 101235Z AUTO 29011KT 10SM CLR 00/M08 A3010 RMK AO2
KJYR 101210Z AUTO 28011KT 10SM CLR 00/M08 A3010 RMK AO2
KJYR 101155Z AUTO 28011KT 10SM CLR 01/M07 A3009 RMK AO2
KJYR 101130Z AUTO 28011KT 10SM CLR 00/M07 A3008 RMK AO2
KJYR 101115Z AUTO 28009KT 10SM CLR 01/M08 A3008 RMK AO2
KJYR 101055Z AUTO 29010KT 10SM CLR 01/M08 A3008 RMK AO2
KJYR 101035Z AUTO 29012KT 10SM CLR 02/M08 A3008 RMK AO2
KJYR 101015Z AUTO 30013KT 10SM CLR 02/M08 A3007 RMK AO2
KJYR 100955Z AUTO 29012KT 10SM CLR 02/M08 A3007 RMK AO2
KJYR 100935Z AUTO 28013KT 10SM CLR 02/M08 A3007 RMK AO2
KJYR 100915Z AUTO 29014KT 10SM CLR 03/M07 A3007 RMK AO2
KJYR 100855Z AUTO 29014KT 10SM CLR 04/M07 A3006 RMK AO2
KJYR 100835Z AUTO 29014KT 10SM CLR 04/M07 A3006 RMK AO2
KJYR 100810Z AUTO 29014KT 10SM CLR 03/M07 A3006 RMK AO2
KJYR 100755Z AUTO 29015KT 10SM CLR 03/M07 A3006 RMK AO2
KJYR 100735Z AUTO 30012KT 10SM CLR 03/M07 A3006 RMK AO2
KJYR 100715Z AUTO 30012KT 10SM CLR 04/M07 A3006 RMK AO2
KJYR 100655Z AUTO 30014KT 10SM CLR 03/M07 A3006 RMK AO2
KJYR 100635Z AUTO 30015KT 10SM CLR 03/M07 A3006 RMK AO2
KJYR 100615Z AUTO 29015KT 10SM CLR 02/M07 A3006 RMK AO2
KJYR 100555Z AUTO 28015KT 10SM CLR 02/M07 A3006 RMK AO2
KJYR 100535Z AUTO 28012KT 10SM CLR 01/M07 A3007 RMK AO2
KJYR 100515Z AUTO 27011KT 10SM CLR 00/M07 A3007 RMK AO2
KJYR 100455Z AUTO 25013KT 10SM CLR M01/M07 A3007 RMK AO2
KJYR 100435Z AUTO 24010KT 10SM CLR M02/M06 A3007 RMK AO2
KJYR 100415Z AUTO 24008KT 10SM CLR M02/M06 A3008 RMK AO2
KJYR 100355Z AUTO 23010KT 10SM CLR M01/M06 A3008 RMK AO2
KJYR 100335Z AUTO 22009KT 10SM CLR M01/M06 A3010 RMK AO2
KJYR 100315Z AUTO 22009KT 10SM CLR M02/M06 A3011 RMK AO2
KJYR 100255Z AUTO 23009KT 10SM CLR M02/M06 A3011 RMK AO2
KJYR 100235Z AUTO 22006KT 10SM CLR M02/M07 A3012 RMK AO2
KJYR 100215Z AUTO 23007KT 10SM CLR M03/M07 A3013 RMK AO2
KJYR 100155Z AUTO 22007KT 10SM CLR M03/M07 A3013 RMK AO2
KJYR 100135Z AUTO 21007KT 10SM CLR M03/M07 A3013 RMK AO2
KJYR 100115Z AUTO 22007KT 10SM CLR M02/M07 A3013 RMK AO2
KJYR 100055Z AUTO 22007KT 10SM CLR 00/M07 A3014 RMK AO2
KJYR 100035Z AUTO 22006KT 10SM CLR 02/M05 A3015 RMK AO2
KJYR 100015Z AUTO 23006KT 10SM CLR 02/M05 A3016 RMK AO2
KJYR 092355Z AUTO 24006KT 10SM CLR 00/M06 A3016 RMK AO2
KJYR 092335Z AUTO 26005KT 10SM CLR 03/M05 A3017 RMK AO2
KJYR 092315Z AUTO 27004KT 10SM CLR 04/M05 A3017 RMK AO2
KJYR 092255Z AUTO 28005KT 10SM CLR 05/M05 A3018 RMK AO2
KJYR 092235Z AUTO 30004KT 10SM CLR 05/M04 A3018 RMK AO2
KJYR 092215Z AUTO 31006KT 10SM CLR 06/M05 A3017 RMK AO2
KJYR 092155Z AUTO 31009KT 10SM CLR 07/M05 A3017 RMK AO2
KJYR 092135Z AUTO 32009KT 10SM CLR 07/M05 A3017 RMK AO2
KJYR 092115Z AUTO 32009KT 10SM CLR 07/M05 A3017 RMK AO2
KJYR 092055Z AUTO 31010KT 10SM CLR 06/M06 A3017 RMK AO2
KJYR 092035Z AUTO 31010KT 10SM CLR 06/M06 A3017 RMK AO2
KJYR 092015Z AUTO 33009KT 10SM CLR 05/M06 A3017 RMK AO2
KJYR 091955Z AUTO 33008KT 10SM CLR 05/M05 A3017 RMK AO2
KJYR 091935Z AUTO 36009KT 10SM CLR 05/M05 A3018 RMK AO2
KJYR 091915Z AUTO 35007KT 10SM CLR 04/M05 A3018 RMK AO2
KJYR 091855Z AUTO 34008KT 10SM CLR 04/M04 A3019 RMK AO2
KJYR 091835Z AUTO 35009KT 10SM CLR 04/M04 A3020 RMK AO2
KJYR 091815Z AUTO 36009G14KT 10SM CLR 03/M04 A3020 RMK AO2
KJYR 091755Z AUTO 35009KT 10SM CLR 03/M04 A3021 RMK AO2